Time;durP1;ratioP1;P1;durP2;ratioP2;P2;SDS_P1;SDS_P2;PMS_P1;PMS_P2;Temp;Humidity;BMP_temperature;BMP_pressure;BME280_temperature;BME280_humidity;BME280_pressure;Samples;Min_cycle;Max_cycle;Signal;HPM_P1;HPM_P2
2022/07/16 00:01:22;;;;;;;6.43;2.95;;;;;;;-148.22;100.00;64452.44;5020520;28;20048;-63
2022/07/16 00:03:51;;;;;;;6.05;2.63;;;;;;;-148.22;100.00;64452.44;5019098;28;20045;-64
2022/07/16 00:06:19;;;;;;;4.82;2.88;;;;;;;-148.22;100.00;64452.44;5020949;28;20045;-63
2022/07/16 00:08:46;;;;;;;5.85;2.83;;;;;;;-148.22;100.00;64452.44;5016112;28;20536;-62
2022/07/16 00:11:13;;;;;;;4.15;2.88;;;;;;;-148.22;100.00;64452.44;5027559;28;20064;-63
2022/07/16 00:13:40;;;;;;;4.95;2.83;;;;;;;-148.22;100.00;64452.44;5017698;28;20527;-63
2022/07/16 00:16:08;;;;;;;4.90;2.65;;;;;;;-148.22;100.00;64452.44;5022052;28;20045;-63
2022/07/16 00:21:22;;;;;;;5.28;2.65;;;;;;;-148.22;100.00;64452.44;5022989;28;20064;-63
2022/07/16 00:23:49;;;;;;;6.32;2.92;;;;;;;-148.22;100.00;64452.44;5024755;28;20041;-62
2022/07/16 00:26:15;;;;;;;4.45;2.50;;;;;;;-148.22;100.00;64452.44;5022754;28;20041;-63
2022/07/16 00:28:43;;;;;;;5.53;2.92;;;;;;;-148.22;100.00;64452.44;5023946;28;20133;-63
2022/07/16 00:31:10;;;;;;;5.10;2.75;;;;;;;-148.22;100.00;64452.44;5022600;28;20045;-64
2022/07/16 00:33:37;;;;;;;4.90;3.10;;;;;;;-148.22;100.00;64452.44;5022626;28;20042;-62
2022/07/16 00:36:04;;;;;;;6.50;2.67;;;;;;;-148.22;100.00;64452.44;5023286;28;20568;-62
2022/07/16 00:38:31;;;;;;;5.18;2.60;;;;;;;-148.22;100.00;64452.44;5031059;28;20037;-63
2022/07/16 00:40:58;;;;;;;4.90;2.72;;;;;;;-148.22;100.00;64452.44;5019586;28;20061;-62
2022/07/16 00:43:24;;;;;;;4.00;2.28;;;;;;;-148.22;100.00;64452.44;5023806;28;20052;-62
2022/07/16 00:45:51;;;;;;;4.45;2.80;;;;;;;-148.22;100.00;64452.44;5026361;28;20064;-62
2022/07/16 00:48:17;;;;;;;4.50;2.40;;;;;;;-148.22;100.00;64452.44;5023669;28;20052;-63
2022/07/16 00:50:44;;;;;;;5.15;2.60;;;;;;;-148.22;100.00;64452.44;5025389;28;20040;-63
2022/07/16 00:53:11;;;;;;;4.18;2.42;;;;;;;-148.22;100.00;64452.44;5030534;28;20049;-63
2022/07/16 00:55:39;;;;;;;5.93;3.20;;;;;;;-148.22;100.00;64452.44;5023494;28;20405;-63
2022/07/16 00:58:06;;;;;;;5.00;2.75;;;;;;;-148.22;100.00;64452.44;5024293;28;20051;-63
2022/07/16 01:00:33;;;;;;;4.13;2.60;;;;;;;-148.22;100.00;64452.44;5024350;28;20034;-63
2022/07/16 01:03:00;;;;;;;6.28;2.58;;;;;;;-148.22;100.00;64452.44;5024140;28;20037;-63
2022/07/16 01:05:27;;;;;;;5.45;2.50;;;;;;;-148.22;100.00;64452.44;5024097;28;20038;-63
2022/07/16 01:07:55;;;;;;;6.18;2.78;;;;;;;-148.22;100.00;64452.44;5024988;28;20509;-62
2022/07/16 01:10:22;;;;;;;4.25;2.17;;;;;;;-148.22;100.00;64452.44;5021810;28;20073;-63
2022/07/16 01:12:59;;;;;;;6.25;2.30;;;;;;;-148.22;100.00;64452.44;5024934;28;20072;-63
2022/07/16 01:15:26;;;;;;;6.05;2.55;;;;;;;-148.22;100.00;64452.44;5021928;28;20049;-63
2022/07/16 01:17:53;;;;;;;4.95;2.50;;;;;;;-148.22;100.00;64452.44;5025289;28;20049;-63
2022/07/16 01:20:21;;;;;;;5.88;2.38;;;;;;;-148.22;100.00;64452.44;5020591;28;20124;-63
2022/07/16 01:22:47;;;;;;;5.68;2.70;;;;;;;-148.22;100.00;64452.44;5019714;28;20042;-62
2022/07/16 01:25:14;;;;;;;5.15;2.60;;;;;;;-148.22;100.00;64452.44;5020758;28;20736;-62
2022/07/16 01:27:40;;;;;;;8.05;2.95;;;;;;;-148.22;100.00;64452.44;5024881;28;20061;-62
2022/07/16 01:30:08;;;;;;;3.65;2.45;;;;;;;-148.22;100.00;64452.44;5024027;28;20045;-62
2022/07/16 01:32:36;;;;;;;4.38;2.13;;;;;;;-148.22;100.00;64452.44;5023478;28;20103;-62
2022/07/16 01:35:04;;;;;;;5.40;2.70;;;;;;;-148.22;100.00;64452.44;5023887;28;20583;-62
2022/07/16 01:37:31;;;;;;;6.32;2.55;;;;;;;-148.22;100.00;64452.44;5024252;28;20037;-62
2022/07/16 01:39:57;;;;;;;6.00;2.60;;;;;;;-148.22;100.00;64452.44;5027371;28;20509;-63
2022/07/16 01:42:24;;;;;;;4.13;2.50;;;;;;;-148.22;100.00;64452.44;5023854;28;20041;-63
2022/07/16 01:44:51;;;;;;;4.65;2.38;;;;;;;-148.22;100.00;64452.44;5022169;28;20060;-63
2022/07/16 01:47:17;;;;;;;5.07;2.85;;;;;;;-148.22;100.00;64452.44;5023310;28;20056;-62
2022/07/16 01:49:45;;;;;;;4.93;2.90;;;;;;;-148.22;100.00;64452.44;5026136;28;20147;-63
2022/07/16 01:52:18;;;;;;;5.32;2.28;;;;;;;-148.22;100.00;64452.44;5024631;28;20116;-63
2022/07/16 01:54:46;;;;;;;6.40;3.75;;;;;;;-148.22;100.00;64452.44;5027884;28;20053;-63
2022/07/16 01:57:14;;;;;;;6.15;2.80;;;;;;;-148.22;100.00;64452.44;5016512;28;21906;-62
2022/07/16 01:59:41;;;;;;;6.90;3.33;;;;;;;-148.22;100.00;64452.44;5027119;28;20302;-63
2022/07/16 02:02:08;;;;;;;4.55;2.67;;;;;;;-148.22;100.00;64452.44;5023835;28;20524;-63
2022/07/16 02:04:35;;;;;;;5.68;3.40;;;;;;;-148.22;100.00;64452.44;5024591;28;20046;-63
2022/07/16 02:07:02;;;;;;;4.47;2.90;;;;;;;-148.22;100.00;64452.44;5023100;28;20107;-62
2022/07/16 02:09:29;;;;;;;6.25;3.20;;;;;;;-148.22;100.00;64452.44;5017878;28;20038;-62
2022/07/16 02:11:55;;;;;;;7.50;3.08;;;;;;;-148.22;100.00;64452.44;5021359;28;20060;-62
2022/07/16 02:14:22;;;;;;;6.68;3.03;;;;;;;-148.22;100.00;64452.44;5038894;28;21074;-62
2022/07/16 02:16:49;;;;;;;4.70;2.92;;;;;;;-148.22;100.00;64452.44;5022671;28;20057;-63
2022/07/16 02:19:16;;;;;;;6.47;3.10;;;;;;;-148.22;100.00;64452.44;5028611;28;20038;-62
2022/07/16 02:21:43;;;;;;;7.60;3.00;;;;;;;-148.22;100.00;64452.44;5026063;28;20052;-62
2022/07/16 02:24:09;;;;;;;6.15;3.45;;;;;;;-148.22;100.00;64452.44;5021476;28;20050;-62
2022/07/16 02:26:36;;;;;;;5.43;2.88;;;;;;;-148.22;100.00;64452.44;5023320;28;20045;-62
2022/07/16 02:29:03;;;;;;;5.97;3.30;;;;;;;-148.22;100.00;64452.44;5025890;28;20046;-63
2022/07/16 02:31:39;;;;;;;5.53;3.22;;;;;;;-148.22;100.00;64452.44;5023322;28;20065;-63
2022/07/16 02:34:06;;;;;;;7.10;3.30;;;;;;;-148.22;100.00;64452.44;5026064;28;20068;-63
2022/07/16 02:36:33;;;;;;;4.80;3.08;;;;;;;-148.22;100.00;64452.44;5022769;28;20444;-63
2022/07/16 02:39:00;;;;;;;7.28;3.75;;;;;;;-148.22;100.00;64452.44;5041929;28;20423;-63
2022/07/16 02:41:26;;;;;;;5.03;2.72;;;;;;;-148.22;100.00;64452.44;5029757;28;20105;-62
2022/07/16 02:43:53;;;;;;;8.00;3.10;;;;;;;-148.22;100.00;64452.44;5026111;28;20046;-62
2022/07/16 02:46:19;;;;;;;5.50;3.13;;;;;;;-148.22;100.00;64452.44;5027034;28;20025;-62
2022/07/16 02:48:46;;;;;;;4.32;2.92;;;;;;;-148.22;100.00;64452.44;5021576;28;20045;-62
2022/07/16 02:51:13;;;;;;;6.53;3.15;;;;;;;-148.22;100.00;64452.44;5025808;28;20041;-62
2022/07/16 02:53:40;;;;;;;6.45;2.95;;;;;;;-148.22;100.00;64452.44;5024926;28;20060;-62
2022/07/16 02:56:06;;;;;;;7.70;3.33;;;;;;;-148.22;100.00;64452.44;5024125;28;20037;-63
2022/07/16 02:58:33;;;;;;;4.90;2.75;;;;;;;-148.22;100.00;64452.44;5021261;28;20045;-62
2022/07/16 03:01:00;;;;;;;4.45;2.60;;;;;;;-148.22;100.00;64452.44;5022993;28;20038;-63
2022/07/16 03:03:26;;;;;;;4.82;3.10;;;;;;;-148.22;100.00;64452.44;5024247;28;20045;-63
2022/07/16 03:05:53;;;;;;;9.00;3.72;;;;;;;-148.22;100.00;64452.44;5026888;28;20060;-63
2022/07/16 03:08:19;;;;;;;5.32;3.15;;;;;;;-148.22;100.00;64452.44;5025541;28;20361;-63
2022/07/16 03:10:46;;;;;;;8.23;2.95;;;;;;;-148.22;100.00;64452.44;5027180;28;20054;-63
2022/07/16 03:13:13;;;;;;;5.10;3.20;;;;;;;-148.22;100.00;64452.44;5022580;28;20524;-62
2022/07/16 03:15:39;;;;;;;10.70;3.25;;;;;;;-148.22;100.00;64452.44;5025182;28;20044;-62
2022/07/16 03:18:06;;;;;;;4.80;2.90;;;;;;;-148.22;100.00;64452.44;5025326;28;19928;-63
2022/07/16 03:20:33;;;;;;;6.07;2.92;;;;;;;-148.22;100.00;64452.44;5020384;28;20501;-63
2022/07/16 03:22:59;;;;;;;7.95;3.10;;;;;;;-148.22;100.00;64452.44;5023212;28;20042;-61
2022/07/16 03:25:26;;;;;;;6.78;2.72;;;;;;;-148.22;100.00;64452.44;5025281;28;20030;-63
2022/07/16 03:27:53;;;;;;;5.60;3.13;;;;;;;-148.22;100.00;64452.44;5027168;28;20049;-62
2022/07/16 03:30:19;;;;;;;4.97;2.90;;;;;;;-148.22;100.00;64452.44;5023391;28;20050;-62
2022/07/16 03:32:46;;;;;;;4.95;3.17;;;;;;;-148.22;100.00;64452.44;5026767;28;20056;-63
2022/07/16 03:35:13;;;;;;;6.45;2.65;;;;;;;-148.22;100.00;64452.44;5022711;28;20472;-62
2022/07/16 03:40:26;;;;;;;8.73;3.45;;;;;;;-148.22;100.00;64452.44;5022837;28;20803;-63
2022/07/16 03:42:54;;;;;;;5.18;3.40;;;;;;;-148.22;100.00;64452.44;5021738;28;20045;-63
2022/07/16 03:45:21;;;;;;;7.60;2.85;;;;;;;-148.22;100.00;64452.44;5022430;28;20121;-62
2022/07/16 03:47:48;;;;;;;6.97;3.45;;;;;;;-148.22;100.00;64452.44;5018792;28;20057;-63
2022/07/16 03:50:15;;;;;;;4.38;2.65;;;;;;;-148.22;100.00;64452.44;5022870;28;20041;-63
2022/07/16 03:52:44;;;;;;;8.65;3.10;;;;;;;-148.22;100.00;64452.44;5023303;28;20040;-62
2022/07/16 03:55:11;;;;;;;5.28;3.13;;;;;;;-148.22;100.00;64452.44;5024379;28;20536;-62
2022/07/16 03:57:39;;;;;;;5.68;2.83;;;;;;;-148.22;100.00;64452.44;5026350;28;20069;-63
2022/07/16 04:00:07;;;;;;;6.13;3.05;;;;;;;-148.22;100.00;64452.44;5024366;28;20046;-63
2022/07/16 04:02:34;;;;;;;5.18;2.63;;;;;;;-148.22;100.00;64452.44;5023879;28;20044;-63
2022/07/16 04:05:02;;;;;;;7.68;3.00;;;;;;;-148.22;100.00;64452.44;5025341;28;20512;-62
2022/07/16 04:07:28;;;;;;;6.20;3.58;;;;;;;-148.22;100.00;64452.44;5017111;28;20488;-63
2022/07/16 04:09:55;;;;;;;5.40;2.70;;;;;;;-148.22;100.00;64452.44;5024139;28;20136;-63
2022/07/16 04:12:23;;;;;;;5.22;3.10;;;;;;;-148.22;100.00;64452.44;5023952;28;20107;-63
2022/07/16 04:14:50;;;;;;;5.60;2.55;;;;;;;-148.22;100.00;64452.44;5016665;28;20050;-62
2022/07/16 04:17:17;;;;;;;5.30;2.95;;;;;;;-148.22;100.00;64452.44;5024875;28;20036;-63
2022/07/16 04:19:44;;;;;;;6.53;2.83;;;;;;;-148.22;100.00;64452.44;5025313;28;20048;-62
2022/07/16 04:22:11;;;;;;;7.05;3.05;;;;;;;-148.22;100.00;64452.44;5023394;28;20060;-63
2022/07/16 04:24:37;;;;;;;5.85;3.30;;;;;;;-148.22;100.00;64452.44;5025717;28;20066;-63
2022/07/16 04:27:04;;;;;;;4.38;2.50;;;;;;;-148.22;100.00;64452.44;5023025;28;20050;-64
2022/07/16 04:29:31;;;;;;;7.55;2.80;;;;;;;-148.22;100.00;64452.44;5025803;28;20052;-63
2022/07/16 04:31:57;;;;;;;4.63;3.00;;;;;;;-148.22;100.00;64452.44;5024521;28;20359;-62
2022/07/16 04:34:24;;;;;;;5.60;2.47;;;;;;;-148.22;100.00;64452.44;5025193;28;20048;-62
2022/07/16 04:36:50;;;;;;;6.78;2.88;;;;;;;-148.22;100.00;64452.44;5022570;28;20045;-62
2022/07/16 04:39:24;;;;;;;4.75;2.50;;;;;;;-148.22;100.00;64452.44;5034925;28;20054;-62
2022/07/16 04:41:51;;;;;;;5.57;3.30;;;;;;;-148.22;100.00;64452.44;5025866;28;20053;-63
2022/07/16 04:44:17;;;;;;;5.35;2.60;;;;;;;-148.22;100.00;64452.44;5024389;28;20048;-62
2022/07/16 04:46:49;;;;;;;5.43;2.38;;;;;;;-148.22;100.00;64452.44;5022219;28;20397;-62
2022/07/16 04:49:16;;;;;;;6.47;2.35;;;;;;;-148.22;100.00;64452.44;5025226;28;20516;-62
2022/07/16 04:51:42;;;;;;;4.57;2.60;;;;;;;-148.22;100.00;64452.44;5016511;28;20118;-62
2022/07/16 04:54:09;;;;;;;7.70;2.70;;;;;;;-148.22;100.00;64452.44;5020144;28;20061;-63
2022/07/16 04:56:35;;;;;;;4.28;2.67;;;;;;;-148.22;100.00;64452.44;5021103;28;20052;-63
2022/07/16 04:59:02;;;;;;;5.53;2.72;;;;;;;-148.22;100.00;64452.44;5018183;28;20057;-62
2022/07/16 05:01:29;;;;;;;6.35;2.60;;;;;;;-148.22;100.00;64452.44;5019033;28;20041;-62
2022/07/16 05:03:55;;;;;;;4.97;2.55;;;;;;;-148.22;100.00;64452.44;5021881;28;20072;-63
2022/07/16 05:06:22;;;;;;;6.88;2.78;;;;;;;-148.22;100.00;64452.44;5016920;28;20313;-63
2022/07/16 05:08:49;;;;;;;5.03;2.13;;;;;;;-148.22;100.00;64452.44;5012307;28;20052;-63
2022/07/16 05:11:16;;;;;;;4.22;2.17;;;;;;;-148.22;100.00;64452.44;5017878;28;20050;-63
2022/07/16 05:13:43;;;;;;;4.63;2.20;;;;;;;-148.22;100.00;64452.44;5016831;28;20052;-56
2022/07/16 05:16:09;;;;;;;5.13;2.30;;;;;;;-148.22;100.00;64452.44;5017974;28;20140;-56
2022/07/16 05:18:36;;;;;;;3.60;2.03;;;;;;;-148.22;100.00;64452.44;5016659;28;20052;-56
2022/07/16 05:21:02;;;;;;;3.97;1.85;;;;;;;-148.22;100.00;64452.44;5022032;28;20220;-54
2022/07/16 05:23:29;;;;;;;5.35;2.45;;;;;;;-148.22;100.00;64452.44;5012509;28;20049;-56
2022/07/16 05:25:56;;;;;;;4.03;1.90;;;;;;;-148.22;100.00;64452.44;5021946;28;20046;-55
2022/07/16 05:28:22;;;;;;;5.13;2.20;;;;;;;-148.22;100.00;64452.44;5026135;28;20056;-53
2022/07/16 05:30:49;;;;;;;5.07;2.38;;;;;;;-148.22;100.00;64452.44;5028616;28;20068;-57
2022/07/16 05:33:16;;;;;;;4.90;2.10;;;;;;;-148.22;100.00;64452.44;5019154;28;20049;-54
2022/07/16 05:35:43;;;;;;;3.80;2.10;;;;;;;-148.22;100.00;64452.44;5016292;28;20037;-54
2022/07/16 05:38:10;;;;;;;4.00;2.20;;;;;;;-148.22;100.00;64452.44;5021100;28;20075;-56
2022/07/16 05:40:36;;;;;;;6.20;2.33;;;;;;;-148.22;100.00;64452.44;5016235;28;20046;-69
2022/07/16 05:43:04;;;;;;;4.45;1.98;;;;;;;-148.22;100.00;64452.44;5023023;28;20049;-69
2022/07/16 05:45:31;;;;;;;6.28;2.10;;;;;;;-148.22;100.00;64452.44;5020314;28;20053;-69
2022/07/16 05:47:58;;;;;;;6.35;2.33;;;;;;;-148.22;100.00;64452.44;5006654;28;20045;-68
2022/07/16 05:50:24;;;;;;;6.80;2.13;;;;;;;-148.22;100.00;64452.44;5031150;28;20077;-68
2022/07/16 05:52:51;;;;;;;4.82;2.42;;;;;;;-148.22;100.00;64452.44;5033292;28;20427;-68
2022/07/16 05:55:18;;;;;;;3.92;2.03;;;;;;;-148.22;100.00;64452.44;5023140;28;20046;-69
2022/07/16 05:57:44;;;;;;;5.22;1.92;;;;;;;-148.22;100.00;64452.44;5009178;28;20045;-69
2022/07/16 06:00:12;;;;;;;4.78;2.00;;;;;;;-148.22;100.00;64452.44;5006997;28;20421;-69
2022/07/16 06:02:40;;;;;;;3.78;1.63;;;;;;;-148.22;100.00;64452.44;5027055;28;20080;-69
2022/07/16 06:05:08;;;;;;;4.30;1.85;;;;;;;-148.22;100.00;64452.44;5027916;28;20100;-69
2022/07/16 06:07:35;;;;;;;5.00;2.15;;;;;;;-148.22;100.00;64452.44;5028100;28;20034;-68
2022/07/16 06:10:03;;;;;;;3.10;1.60;;;;;;;-148.22;100.00;64452.44;5029689;28;20509;-69
2022/07/16 06:12:29;;;;;;;3.67;1.50;;;;;;;-148.22;100.00;64452.44;5012151;28;20045;-69
2022/07/16 06:14:56;;;;;;;3.47;1.80;;;;;;;-148.22;100.00;64452.44;5027932;28;20049;-68
2022/07/16 06:17:22;;;;;;;3.67;1.60;;;;;;;-148.22;100.00;64452.44;5029310;28;20037;-68
2022/07/16 06:19:49;;;;;;;3.30;1.70;;;;;;;-148.22;100.00;64452.44;5028981;28;20046;-69
2022/07/16 06:22:15;;;;;;;6.03;1.80;;;;;;;-148.22;100.00;64452.44;5017819;28;20513;-69
2022/07/16 06:24:42;;;;;;;4.25;1.80;;;;;;;-148.22;100.00;64452.44;5009019;28;20038;-68
2022/07/16 06:27:09;;;;;;;6.70;1.90;;;;;;;-148.22;100.00;64452.44;5027275;28;20343;-68
2022/07/16 06:29:35;;;;;;;5.10;2.08;;;;;;;-148.22;100.00;64452.44;5029259;28;20408;-69
2022/07/16 06:32:02;;;;;;;10.48;1.70;;;;;;;-148.22;100.00;64452.44;5026992;28;20049;-69
2022/07/16 06:34:28;;;;;;;5.10;1.88;;;;;;;-148.22;100.00;64452.44;5009984;28;20045;-69
2022/07/16 06:36:55;;;;;;;3.90;1.58;;;;;;;-148.22;100.00;64452.44;5025073;28;20049;-69
2022/07/16 06:39:21;;;;;;;3.08;1.52;;;;;;;-148.22;100.00;64452.44;5028380;28;20049;-69
2022/07/16 06:41:48;;;;;;;5.70;2.03;;;;;;;-148.22;100.00;64452.44;5012976;28;20050;-68
2022/07/16 06:44:15;;;;;;;3.05;1.77;;;;;;;-148.22;100.00;64452.44;5024356;28;20053;-69
2022/07/16 06:46:41;;;;;;;5.35;1.70;;;;;;;-148.22;100.00;64452.44;5017132;28;20416;-69
2022/07/16 06:49:08;;;;;;;7.05;1.50;;;;;;;-148.22;100.00;64452.44;5028694;28;20064;-69
2022/07/16 06:51:34;;;;;;;5.25;1.70;;;;;;;-148.22;100.00;64452.44;5023964;28;20045;-69
2022/07/16 06:54:01;;;;;;;3.33;1.60;;;;;;;-148.22;100.00;64452.44;5024461;28;20413;-69
2022/07/16 06:56:28;;;;;;;3.53;1.58;;;;;;;-148.22;100.00;64452.44;5015690;28;20046;-69
2022/07/16 06:58:54;;;;;;;3.50;1.33;;;;;;;-148.22;100.00;64452.44;5009361;28;20061;-69
2022/07/16 07:01:21;;;;;;;3.83;1.10;;;;;;;-148.22;100.00;64452.44;5019309;28;20046;-69
2022/07/16 07:03:47;;;;;;;5.80;1.88;;;;;;;-148.22;100.00;64452.44;5023155;28;20052;-69
2022/07/16 07:06:14;;;;;;;4.05;1.48;;;;;;;-148.22;100.00;64452.44;5011905;28;20570;-69
2022/07/16 07:08:41;;;;;;;3.10;1.40;;;;;;;-148.22;100.00;64452.44;5016782;28;20041;-69
2022/07/16 07:11:14;;;;;;;3.75;1.60;;;;;;;-148.22;100.00;64452.44;5026298;28;20080;-69
2022/07/16 07:13:41;;;;;;;3.38;1.50;;;;;;;-148.22;100.00;64452.44;5016971;28;20042;-69
2022/07/16 07:16:08;;;;;;;2.85;1.33;;;;;;;-148.22;100.00;64452.44;5012866;28;20104;-69
2022/07/16 07:18:35;;;;;;;2.55;1.40;;;;;;;-148.22;100.00;64452.44;5026320;28;20120;-69
2022/07/16 07:21:02;;;;;;;3.50;1.52;;;;;;;-148.22;100.00;64452.44;5023093;28;20069;-69
2022/07/16 07:23:29;;;;;;;3.15;1.60;;;;;;;-148.22;100.00;64452.44;5019396;28;20375;-69
2022/07/16 07:25:56;;;;;;;6.60;1.50;;;;;;;-148.22;100.00;64452.44;5027604;28;20048;-69
2022/07/16 07:28:22;;;;;;;5.00;1.60;;;;;;;-148.22;100.00;64452.44;5019962;28;20046;-69
2022/07/16 07:30:49;;;;;;;2.63;1.30;;;;;;;-148.22;100.00;64452.44;5021649;28;20553;-69
2022/07/16 07:33:15;;;;;;;4.93;1.55;;;;;;;-148.22;100.00;64452.44;5018182;28;20068;-69
2022/07/16 07:35:42;;;;;;;7.35;1.95;;;;;;;-148.22;100.00;64452.44;5010540;28;20092;-68
2022/07/16 07:38:09;;;;;;;3.15;1.50;;;;;;;-148.22;100.00;64452.44;5028038;28;20044;-69
2022/07/16 07:40:38;;;;;;;4.20;1.80;;;;;;;-148.22;100.00;64452.44;5015690;28;20054;-69
2022/07/16 07:43:05;;;;;;;3.75;1.80;;;;;;;-148.22;100.00;64452.44;5013354;28;20172;-69
2022/07/16 07:45:31;;;;;;;2.97;1.20;;;;;;;-148.22;100.00;64452.44;5014110;28;20042;-69
2022/07/16 07:47:58;;;;;;;2.05;1.10;;;;;;;-148.22;100.00;64452.44;5019475;28;20309;-69
2022/07/16 07:50:25;;;;;;;3.40;1.35;;;;;;;-148.22;100.00;64452.44;5019011;28;20046;-69
2022/07/16 07:52:52;;;;;;;4.45;1.73;;;;;;;-148.22;100.00;64452.44;5022794;28;20420;-69
2022/07/16 07:55:20;;;;;;;5.22;1.50;;;;;;;-148.22;100.00;64452.44;5027477;28;20221;-69
2022/07/16 07:57:52;;;;;;;3.53;1.20;;;;;;;-148.22;100.00;64452.44;5026173;28;20077;-69
2022/07/16 08:00:19;;;;;;;5.88;1.48;;;;;;;-148.22;100.00;64452.44;5019220;28;20456;-69
2022/07/16 08:02:46;;;;;;;4.40;1.40;;;;;;;-148.22;100.00;64452.44;5026338;28;20041;-69
2022/07/16 08:05:13;;;;;;;4.45;1.60;;;;;;;-148.22;100.00;64452.44;5027011;28;20120;-69
2022/07/16 08:07:40;;;;;;;4.22;1.20;;;;;;;-148.22;100.00;64452.44;5026232;28;20489;-68
2022/07/16 08:10:08;;;;;;;2.28;1.00;;;;;;;-148.22;100.00;64452.44;5022503;28;20548;-69
2022/07/16 08:12:36;;;;;;;3.65;1.40;;;;;;;-148.22;100.00;64452.44;5024441;28;20064;-69
2022/07/16 08:15:04;;;;;;;3.33;1.30;;;;;;;-148.22;100.00;64452.44;5007373;28;20092;-69
2022/07/16 08:17:37;;;;;;;4.18;1.40;;;;;;;-148.22;100.00;64452.44;5007074;28;20045;-69
2022/07/16 08:20:05;;;;;;;3.58;1.17;;;;;;;-148.22;100.00;64452.44;5021177;28;20358;-69
2022/07/16 08:22:32;;;;;;;3.90;1.08;;;;;;;-148.22;100.00;64452.44;5025484;28;20451;-69
2022/07/16 08:27:44;;;;;;;3.95;1.10;;;;;;;-148.22;100.00;64452.44;5005658;28;20049;-69
2022/07/16 08:30:10;;;;;;;2.75;1.15;;;;;;;-148.22;100.00;64452.44;5021005;28;20129;-68
2022/07/16 08:32:37;;;;;;;2.20;1.10;;;;;;;-148.22;100.00;64452.44;5009062;28;20302;-69
2022/07/16 08:35:04;;;;;;;4.55;1.00;;;;;;;-148.22;100.00;64452.44;5022360;28;20037;-69
2022/07/16 08:37:35;;;;;;;6.45;1.25;;;;;;;-148.22;100.00;64452.44;5026833;28;20073;-69
2022/07/16 08:40:08;;;;;;;3.17;1.20;;;;;;;-148.22;100.00;64452.44;5026046;28;20121;-69
2022/07/16 08:42:36;;;;;;;2.72;1.10;;;;;;;-148.22;100.00;64452.44;5024659;28;20049;-69
2022/07/16 08:45:05;;;;;;;5.30;1.27;;;;;;;-148.22;100.00;64452.44;5010024;28;20444;-69
2022/07/16 08:47:33;;;;;;;3.15;1.17;;;;;;;-148.22;100.00;64452.44;5025602;28;20431;-68
2022/07/16 08:50:03;;;;;;;6.15;1.30;;;;;;;-148.22;100.00;64452.44;5022871;28;20042;-69
2022/07/16 08:52:30;;;;;;;3.40;1.00;;;;;;;-148.22;100.00;64452.44;5010810;28;20043;-69
2022/07/16 08:54:57;;;;;;;3.17;1.00;;;;;;;-148.22;100.00;64452.44;5023940;28;20056;-69
2022/07/16 08:57:24;;;;;;;3.78;1.40;;;;;;;-148.22;100.00;64452.44;5025807;28;20041;-68
2022/07/16 08:59:52;;;;;;;2.72;1.58;;;;;;;-148.22;100.00;64452.44;5008283;28;20053;-69
2022/07/16 09:02:19;;;;;;;3.30;2.05;;;;;;;-148.22;100.00;64452.44;5026365;28;20059;-69
2022/07/16 09:04:46;;;;;;;6.10;1.10;;;;;;;-148.22;100.00;64452.44;5024154;28;20049;-68
2022/07/16 09:07:18;;;;;;;3.58;1.23;;;;;;;-148.22;100.00;64452.44;5006141;28;20104;-68
2022/07/16 09:09:45;;;;;;;2.20;0.93;;;;;;;-148.22;100.00;64452.44;5024755;28;20405;-67
2022/07/16 09:12:34;;;;;;;3.55;0.90;;;;;;;-148.22;100.00;64452.44;5006252;28;20057;-68
2022/07/16 09:15:21;;;;;;;2.22;0.98;;;;;;;-148.22;100.00;64452.44;5004235;28;20061;-68
2022/07/16 09:18:24;;;;;;;4.40;1.27;;;;;;;-148.22;100.00;64452.44;5023171;28;20147;-67
2022/07/16 09:20:54;;;;;;;3.13;1.10;;;;;;;-148.22;100.00;64452.44;5006874;28;20576;-67
2022/07/16 09:23:36;;;;;;;3.67;0.95;;;;;;;-148.22;100.00;64452.44;5013104;28;20534;-68
2022/07/16 09:26:08;;;;;;;3.25;1.88;;;;;;;-148.22;100.00;64452.44;5012064;28;20041;-66
2022/07/16 09:28:44;;;;;;;2.45;1.10;;;;;;;-148.22;100.00;64452.44;5020496;28;20033;-69
2022/07/16 09:31:12;;;;;;;2.10;1.00;;;;;;;-148.22;100.00;64452.44;5017129;28;20052;-70
2022/07/16 09:33:38;;;;;;;4.20;1.17;;;;;;;-148.22;100.00;64452.44;5029856;28;20057;-70
2022/07/16 09:36:11;;;;;;;10.02;1.33;;;;;;;-148.22;100.00;64452.44;5003396;28;20513;-70
2022/07/16 09:38:51;;;;;;;1.95;1.25;;;;;;;-148.22;100.00;64452.44;5021864;28;20042;-70
2022/07/16 09:41:20;;;;;;;2.60;1.10;;;;;;;-148.22;100.00;64452.44;5017076;28;20061;-70
2022/07/16 09:43:48;;;;;;;2.25;1.00;;;;;;;-148.22;100.00;64452.44;5024168;28;20057;-70
2022/07/16 09:46:23;;;;;;;3.30;1.13;;;;;;;-148.22;100.00;64452.44;5027893;28;20365;-70
2022/07/16 09:48:51;;;;;;;2.38;1.00;;;;;;;-148.22;100.00;64452.44;5017703;28;20667;-70
2022/07/16 09:51:28;;;;;;;3.13;1.05;;;;;;;-148.22;100.00;64452.44;5019049;28;20560;-70
2022/07/16 09:53:56;;;;;;;2.42;1.00;;;;;;;-148.22;100.00;64452.44;5030775;28;20071;-69
2022/07/16 09:56:25;;;;;;;2.60;1.20;;;;;;;-148.22;100.00;64452.44;5028231;28;20516;-70
2022/07/16 09:58:54;;;;;;;3.78;1.63;;;;;;;-148.22;100.00;64452.44;5023642;28;20052;-70
2022/07/16 10:01:21;;;;;;;2.35;1.10;;;;;;;-148.22;100.00;64452.44;5027525;28;20412;-70
2022/07/16 10:03:49;;;;;;;5.03;1.23;;;;;;;-148.22;100.00;64452.44;5029863;28;20049;-70
2022/07/16 10:06:17;;;;;;;2.72;1.20;;;;;;;-148.22;100.00;64452.44;5023294;28;20037;-69
2022/07/16 10:08:45;;;;;;;7.15;1.77;;;;;;;-148.22;100.00;64452.44;5018066;28;20041;-70
2022/07/16 10:11:13;;;;;;;2.83;1.20;;;;;;;-148.22;100.00;64452.44;5015917;28;20046;-70
2022/07/16 10:13:43;;;;;;;2.53;0.90;;;;;;;-148.22;100.00;64452.44;5009197;28;20053;-70
2022/07/16 10:16:10;;;;;;;3.38;1.20;;;;;;;-148.22;100.00;64452.44;5009597;28;20314;-70
2022/07/16 10:18:40;;;;;;;4.13;1.38;;;;;;;-148.22;100.00;64452.44;5022774;28;20064;-70
2022/07/16 10:21:16;;;;;;;3.05;1.25;;;;;;;-148.22;100.00;64452.44;5024136;28;20099;-70
2022/07/16 10:23:49;;;;;;;3.40;1.10;;;;;;;-148.22;100.00;64452.44;5021179;28;20052;-70
2022/07/16 10:26:22;;;;;;;2.60;1.00;;;;;;;-148.22;100.00;64452.44;5026466;28;20532;-70
2022/07/16 10:28:49;;;;;;;4.65;1.30;;;;;;;-148.22;100.00;64452.44;5035992;28;20536;-70
2022/07/16 10:31:33;;;;;;;4.15;1.05;;;;;;;-148.22;100.00;64452.44;5015600;28;20409;-70
2022/07/16 10:34:14;;;;;;;3.22;1.00;;;;;;;-148.22;100.00;64452.44;5016272;28;20046;-69
2022/07/16 10:36:47;;;;;;;2.42;1.00;;;;;;;-148.22;100.00;64452.44;5013513;28;20056;-70
2022/07/16 10:39:15;;;;;;;5.30;1.85;;;;;;;-148.22;100.00;64452.44;5026233;28;20676;-69
2022/07/16 10:42:00;;;;;;;3.90;1.25;;;;;;;-148.22;100.00;64452.44;5014780;28;20527;-70
2022/07/16 10:44:44;;;;;;;3.53;1.30;;;;;;;-148.22;100.00;64452.44;5036590;28;20076;-68
2022/07/16 10:47:12;;;;;;;3.35;0.90;;;;;;;-148.22;100.00;64452.44;5022808;28;20046;-66
2022/07/16 10:49:40;;;;;;;2.92;1.30;;;;;;;-148.22;100.00;64452.44;5013952;28;20056;-67
2022/07/16 10:52:10;;;;;;;4.50;2.30;;;;;;;-148.22;100.00;64452.44;5014013;28;20041;-71
2022/07/16 10:54:38;;;;;;;2.38;1.00;;;;;;;-148.22;100.00;64452.44;5020880;28;20428;-70
2022/07/16 10:57:09;;;;;;;3.35;1.50;;;;;;;-148.22;100.00;64452.44;5006346;28;20054;-70
2022/07/16 10:59:46;;;;;;;3.15;0.90;;;;;;;-148.22;100.00;64452.44;5016617;28;20120;-70
2022/07/16 11:02:14;;;;;;;2.97;0.85;;;;;;;-148.22;100.00;64452.44;5017363;28;20505;-69
2022/07/16 11:04:52;;;;;;;1.83;0.80;;;;;;;-148.22;100.00;64452.44;5023091;28;20525;-71
2022/07/16 11:07:21;;;;;;;2.53;1.23;;;;;;;-148.22;100.00;64452.44;5019057;28;20042;-69
2022/07/16 11:09:50;;;;;;;1.80;0.88;;;;;;;-148.22;100.00;64452.44;5023621;28;20099;-70
2022/07/16 11:12:24;;;;;;;2.03;0.80;;;;;;;-148.22;100.00;64452.44;5025346;28;20207;-67
2022/07/16 11:14:52;;;;;;;3.78;1.70;;;;;;;-148.22;100.00;64452.44;5025011;28;20424;-70
2022/07/16 11:17:23;;;;;;;5.40;1.13;;;;;;;-148.22;100.00;64452.44;5024933;28;20046;-67
2022/07/16 11:19:52;;;;;;;4.10;1.33;;;;;;;-148.22;100.00;64452.44;5035589;28;20059;-65
2022/07/16 11:22:21;;;;;;;3.83;1.10;;;;;;;-148.22;100.00;64452.44;5032146;28;20235;-67